createdAt,value
2017-10-28T00:00:33.868Z,11.30
2017-10-28T00:03:01.379Z,11.30
2017-10-28T00:05:28.853Z,11.30
2017-10-28T00:07:56.400Z,11.20
2017-10-28T00:10:23.876Z,11.20
2017-10-28T00:12:51.381Z,11.30
2017-10-28T00:15:18.850Z,11.30
2017-10-28T00:17:46.380Z,11.20
2017-10-28T00:20:14.628Z,11.20
2017-10-28T00:22:42.124Z,11.20
2017-10-28T00:25:10.375Z,11.10
2017-10-28T00:27:37.856Z,11.00
2017-10-28T00:30:11.817Z,11.00
2017-10-28T00:32:45.100Z,11.00
2017-10-28T00:35:18.212Z,11.00
2017-10-28T00:37:45.688Z,11.00
2017-10-28T00:40:13.955Z,11.00
2017-10-28T00:42:42.240Z,10.90
2017-10-28T00:45:09.729Z,11.00
2017-10-28T00:47:37.243Z,11.00
2017-10-28T00:50:04.732Z,11.00
2017-10-28T00:52:32.974Z,11.00
2017-10-28T00:55:00.465Z,11.00
2017-10-28T00:57:27.992Z,11.00
2017-10-28T00:59:55.471Z,11.00
2017-10-28T01:02:23.040Z,10.90
2017-10-28T01:04:51.286Z,11.00
2017-10-28T01:07:18.767Z,11.00
2017-10-28T01:09:46.239Z,11.10
2017-10-28T01:12:14.499Z,11.00
2017-10-28T01:14:41.964Z,11.00
2017-10-28T01:17:10.232Z,11.00
2017-10-28T01:19:38.515Z,11.10
2017-10-28T01:22:06.756Z,11.10
2017-10-28T01:24:34.246Z,11.10
2017-10-28T01:27:01.715Z,11.10
2017-10-28T01:29:29.980Z,11.10
2017-10-28T01:31:57.473Z,11.10
2017-10-28T01:34:24.975Z,11.10
2017-10-28T01:36:52.451Z,11.10
2017-10-28T01:39:19.920Z,11.10
2017-10-28T01:41:48.176Z,11.20
2017-10-28T01:44:15.655Z,11.10
2017-10-28T01:46:43.908Z,11.10
2017-10-28T01:49:11.382Z,11.10
2017-10-28T01:51:38.907Z,11.00
2017-10-28T01:54:06.403Z,11.00
2017-10-28T01:56:34.676Z,10.90
2017-10-28T01:59:02.151Z,10.90
2017-10-28T02:01:30.415Z,10.90
2017-10-28T02:03:58.671Z,10.90
2017-10-28T02:06:26.144Z,10.90
2017-10-28T02:08:53.635Z,10.90
2017-10-28T02:11:21.112Z,10.90
2017-10-28T02:13:48.633Z,10.90
2017-10-28T02:16:16.880Z,11.00
2017-10-28T02:18:44.395Z,10.90
2017-10-28T02:21:11.879Z,10.90
2017-10-28T02:23:39.353Z,10.90
2017-10-28T02:26:06.841Z,10.90
2017-10-28T02:28:35.085Z,10.90
2017-10-28T02:31:02.591Z,10.80
2017-10-28T02:33:30.065Z,10.90
2017-10-28T02:35:57.552Z,10.80
2017-10-28T02:38:25.025Z,10.80
2017-10-28T02:40:52.527Z,10.80
2017-10-28T02:43:20.770Z,10.80
2017-10-28T02:45:49.016Z,10.80
2017-10-28T02:48:16.529Z,10.80
2017-10-28T02:50:44.769Z,10.90
2017-10-28T02:53:12.260Z,10.90
2017-10-28T02:55:40.495Z,10.90
2017-10-28T02:58:08.000Z,10.90
2017-10-28T03:00:36.236Z,10.80
2017-10-28T03:03:03.738Z,10.80
2017-10-28T03:05:31.236Z,10.90
2017-10-28T03:07:58.707Z,10.90
2017-10-28T03:10:26.196Z,10.90
2017-10-28T03:12:54.436Z,10.80
2017-10-28T03:15:21.936Z,10.80
2017-10-28T03:17:50.171Z,10.80
2017-10-28T03:20:17.800Z,10.80
2017-10-28T03:22:45.284Z,10.90
2017-10-28T03:25:12.803Z,10.90
2017-10-28T03:27:40.282Z,10.90
2017-10-28T03:30:07.761Z,10.90
2017-10-28T03:32:35.256Z,10.90
2017-10-28T03:35:03.496Z,10.90
2017-10-28T03:37:30.985Z,10.90
2017-10-28T03:39:59.239Z,10.90
2017-10-28T03:42:26.736Z,10.90
2017-10-28T03:44:54.976Z,10.80
2017-10-28T03:47:22.494Z,10.80
2017-10-28T03:49:50.015Z,10.80
2017-10-28T03:52:17.480Z,10.80
2017-10-28T03:54:45.747Z,10.80
2017-10-28T03:57:13.219Z,10.90
2017-10-28T03:59:41.464Z,10.80
2017-10-28T04:02:08.939Z,10.80
2017-10-28T04:04:36.434Z,10.70
2017-10-28T04:07:03.908Z,10.70
2017-10-28T04:09:31.504Z,10.70
2017-10-28T04:11:58.984Z,10.60
2017-10-28T04:14:26.495Z,10.70
2017-10-28T04:16:53.980Z,10.70
2017-10-28T04:19:21.476Z,10.70
2017-10-28T04:21:48.966Z,10.60
2017-10-28T04:24:16.447Z,10.50
2017-10-28T04:26:43.946Z,10.60
2017-10-28T04:29:12.188Z,10.50
2017-10-28T04:31:39.664Z,10.50
2017-10-28T04:34:07.921Z,10.40
2017-10-28T04:36:35.396Z,10.40
2017-10-28T04:39:03.648Z,10.40
2017-10-28T04:41:31.126Z,10.30
2017-10-28T04:43:58.623Z,10.40
2017-10-28T04:46:26.187Z,10.30
2017-10-28T04:48:54.448Z,10.30
2017-10-28T04:51:21.923Z,10.20
2017-10-28T04:53:49.403Z,10.20
2017-10-28T04:56:16.889Z,10.20
2017-10-28T04:58:44.494Z,10.20
2017-10-28T05:01:11.985Z,10.20
2017-10-28T05:03:39.466Z,10.20
2017-10-28T05:06:06.956Z,10.20
2017-10-28T05:08:35.208Z,10.10
2017-10-28T05:11:03.483Z,10.10
2017-10-28T05:13:31.775Z,10.00
2017-10-28T05:16:00.013Z,10.00
2017-10-28T05:18:27.508Z,10.00
2017-10-28T05:20:55.758Z,10.00
2017-10-28T05:23:23.268Z,10.00
2017-10-28T05:25:50.756Z,10.00
2017-10-28T05:28:18.258Z,10.00
2017-10-28T05:30:46.500Z,10.00
2017-10-28T05:33:13.972Z,10.00
2017-10-28T05:35:41.467Z,10.00
2017-10-28T05:38:08.946Z,10.00
2017-10-28T05:40:36.444Z,10.00
2017-10-28T05:43:03.921Z,10.00
2017-10-28T05:45:32.218Z,10.00
2017-10-28T05:47:59.707Z,10.00
2017-10-28T05:50:27.197Z,10.00
2017-10-28T05:52:54.677Z,10.00
2017-10-28T05:55:22.920Z,10.00
2017-10-28T05:57:50.412Z,10.00
2017-10-28T06:00:19.579Z,10.00
2017-10-28T06:02:47.067Z,10.00
2017-10-28T06:05:15.330Z,10.00
2017-10-28T06:07:42.905Z,10.00
2017-10-28T06:10:11.192Z,10.00
2017-10-28T06:12:39.456Z,10.00
2017-10-28T06:15:07.688Z,10.00
2017-10-28T06:17:35.155Z,10.00
2017-10-28T06:20:02.656Z,10.00
2017-10-28T06:22:30.904Z,10.00
2017-10-28T06:24:58.404Z,10.00
2017-10-28T06:27:25.885Z,10.00
2017-10-28T06:29:53.375Z,10.00
2017-10-28T06:32:20.853Z,10.00
2017-10-28T06:34:49.155Z,10.00
2017-10-28T06:37:16.634Z,10.00
2017-10-28T06:39:44.109Z,10.00
2017-10-28T06:42:11.645Z,10.00
2017-10-28T06:44:39.119Z,10.10
2017-10-28T06:47:06.612Z,10.10
2017-10-28T06:49:34.088Z,10.10
2017-10-28T06:52:02.347Z,10.10
2017-10-28T06:54:29.925Z,10.10
2017-10-28T06:56:58.180Z,10.10
2017-10-28T06:59:25.652Z,10.10
2017-10-28T10:46:07.291Z,11.50
2017-10-28T10:48:35.530Z,11.50
2017-10-28T10:51:03.008Z,11.50
2017-10-28T10:53:30.519Z,11.50
2017-10-28T10:55:58.036Z,11.60
2017-10-28T10:58:26.291Z,11.50
2017-10-28T11:00:53.771Z,11.40
2017-10-28T11:03:22.044Z,11.50
2017-10-28T11:05:50.284Z,11.60
2017-10-28T11:08:18.550Z,11.60
2017-10-28T11:10:46.020Z,11.60
2017-10-28T11:13:13.511Z,11.60
2017-10-28T11:15:40.991Z,11.70
2017-10-28T11:18:09.245Z,11.60
2017-10-28T11:20:37.504Z,11.60
2017-10-28T11:23:04.976Z,11.60
2017-10-28T11:25:32.475Z,11.80
2017-10-28T11:27:59.947Z,11.80
2017-10-28T11:30:27.452Z,11.90
2017-10-28T11:32:54.925Z,11.90
2017-10-28T11:35:23.186Z,11.70
2017-10-28T11:37:51.452Z,11.70
2017-10-28T11:40:18.950Z,11.70
2017-10-28T11:42:46.506Z,11.70
2017-10-28T11:45:14.744Z,11.80
2017-10-28T11:47:42.244Z,11.80
2017-10-28T11:50:09.728Z,11.80
2017-10-28T11:52:37.324Z,11.70
2017-10-28T11:55:04.836Z,11.70
2017-10-28T11:57:32.306Z,11.70
2017-10-28T11:59:59.801Z,11.80
2017-10-28T12:02:27.275Z,11.80
2017-10-28T12:04:55.528Z,11.80
2017-10-28T12:07:23.008Z,11.80
2017-10-28T12:09:51.260Z,11.70
2017-10-28T12:12:18.756Z,11.70
2017-10-28T12:14:47.000Z,11.80
2017-10-28T12:17:14.496Z,11.80
2017-10-28T12:19:41.969Z,11.90
2017-10-28T12:22:09.515Z,11.90
2017-10-28T12:24:37.751Z,11.90
2017-10-28T12:27:05.218Z,11.90
2017-10-28T12:29:32.713Z,11.90
2017-10-28T12:32:00.180Z,11.80
2017-10-28T12:34:27.676Z,11.80
2017-10-28T12:36:55.144Z,11.90
2017-10-28T12:39:24.150Z,11.90
2017-10-28T12:41:51.650Z,11.90
2017-10-28T12:44:19.127Z,11.90
2017-10-28T12:46:46.631Z,12.00
2017-10-28T12:49:14.875Z,11.90
2017-10-28T12:51:42.393Z,11.90
2017-10-28T12:54:09.875Z,12.00
2017-10-28T12:56:37.381Z,12.00
2017-10-28T12:59:05.662Z,12.00
2017-10-28T13:01:33.915Z,11.90
2017-10-28T13:04:01.392Z,11.90
2017-10-28T13:06:29.660Z,11.90
2017-10-28T13:08:57.152Z,11.90
2017-10-28T13:11:24.622Z,11.80
2017-10-28T13:13:52.888Z,11.80
2017-10-28T13:16:20.462Z,11.80
2017-10-28T13:18:47.991Z,11.90
2017-10-28T13:21:16.264Z,11.90
2017-10-28T13:23:44.508Z,12.00
2017-10-28T13:26:12.010Z,11.90
2017-10-28T13:28:40.255Z,12.00
2017-10-28T13:31:07.736Z,12.00
2017-10-28T13:33:35.992Z,12.00
2017-10-28T13:36:04.983Z,11.90
2017-10-28T13:38:32.464Z,11.90
2017-10-28T13:41:00.725Z,12.00
2017-10-28T13:43:28.200Z,12.00
2017-10-28T13:45:56.479Z,12.10
2017-10-28T13:48:24.715Z,12.10
2017-10-28T13:50:52.215Z,12.10
2017-10-28T13:53:20.451Z,12.10
2017-10-28T13:55:47.968Z,12.00
2017-10-28T13:58:15.437Z,12.00
2017-10-28T14:00:42.912Z,12.00
2017-10-28T14:03:10.449Z,12.00
2017-10-28T14:05:37.933Z,11.90
2017-10-28T14:08:05.425Z,12.00
2017-10-28T14:10:32.900Z,12.00
2017-10-28T14:13:01.206Z,12.00
2017-10-28T14:15:28.680Z,12.00
2017-10-28T14:17:56.156Z,12.00
2017-10-28T14:20:23.666Z,12.00
2017-10-28T14:22:51.135Z,11.90
2017-10-28T14:25:18.620Z,11.90
2017-10-28T14:27:46.100Z,11.90
2017-10-28T14:30:13.592Z,11.90
2017-10-28T14:32:41.171Z,11.90
2017-10-28T14:35:08.659Z,12.00
2017-10-28T14:37:36.172Z,12.00
2017-10-28T14:40:03.645Z,11.90
2017-10-28T14:42:31.141Z,11.90
2017-10-28T14:44:58.624Z,12.00
2017-10-28T14:47:26.914Z,12.00
2017-10-28T14:49:55.184Z,11.90
2017-10-28T14:52:23.446Z,11.90
2017-10-28T14:54:51.715Z,11.90
2017-10-28T14:57:19.216Z,11.90
2017-10-28T14:59:46.787Z,11.90
2017-10-28T15:02:14.312Z,11.80
2017-10-28T15:04:42.560Z,11.80
2017-10-28T15:07:10.060Z,11.80
2017-10-28T15:09:38.300Z,11.90
2017-10-28T15:12:05.888Z,11.90
2017-10-28T15:14:34.142Z,12.00
2017-10-28T15:17:01.632Z,11.90
2017-10-28T15:19:29.891Z,11.90
2017-10-28T15:21:58.139Z,12.00
2017-10-28T15:24:25.739Z,11.90
2017-10-28T15:26:53.971Z,12.00
2017-10-28T15:29:21.483Z,11.90
2017-10-28T15:31:49.016Z,12.00
2017-10-28T15:34:16.496Z,11.90
2017-10-28T15:36:44.760Z,12.00
2017-10-28T15:39:13.020Z,12.00
2017-10-28T15:41:40.509Z,11.90
2017-10-28T15:44:08.768Z,12.10
2017-10-28T15:46:37.035Z,12.00
2017-10-28T15:49:04.508Z,12.00
2017-10-28T15:51:32.787Z,12.00
2017-10-28T15:54:00.306Z,12.00
2017-10-28T15:56:27.780Z,12.10
2017-10-28T15:58:55.272Z,12.10
2017-10-28T16:01:22.753Z,12.10
2017-10-28T16:03:50.388Z,12.10
2017-10-28T16:06:18.636Z,12.10
2017-10-28T16:08:46.142Z,12.10
2017-10-28T16:11:13.647Z,12.10
2017-10-28T16:13:41.137Z,12.00
2017-10-28T16:16:09.413Z,12.10
2017-10-28T16:18:37.660Z,12.10
2017-10-28T16:21:05.156Z,12.10
2017-10-28T16:23:33.425Z,12.10
2017-10-28T16:26:01.671Z,12.10
2017-10-28T16:28:29.189Z,12.10
2017-10-28T16:30:56.681Z,12.10
2017-10-28T16:33:24.176Z,12.10
2017-10-28T16:35:52.416Z,12.00
2017-10-28T16:38:19.914Z,12.00
2017-10-28T16:40:48.155Z,12.00
2017-10-28T16:43:15.625Z,11.90
2017-10-28T16:45:43.115Z,11.90
2017-10-28T16:48:10.585Z,12.00
2017-10-28T16:50:38.075Z,12.00
2017-10-28T16:53:05.560Z,12.00
2017-10-28T16:55:33.836Z,12.00
2017-10-28T16:58:01.327Z,12.00
2017-10-28T17:00:28.800Z,12.00
2017-10-28T17:04:23.571Z,11.90
2017-10-28T17:06:51.809Z,11.80
2017-10-28T17:09:19.296Z,11.80
2017-10-28T17:11:47.544Z,11.90
2017-10-28T17:14:15.036Z,11.90
2017-10-28T17:16:43.285Z,11.70
2017-10-28T17:19:10.805Z,11.70
2017-10-28T17:21:38.279Z,11.70
2017-10-28T17:24:05.756Z,11.70
2017-10-28T17:26:33.252Z,11.70
2017-10-28T17:29:01.501Z,11.70
2017-10-28T17:31:29.013Z,11.70
2017-10-28T17:33:56.536Z,11.60
2017-10-28T17:36:24.792Z,11.60
2017-10-28T17:38:52.269Z,11.60
2017-10-28T17:41:20.519Z,11.60
2017-10-28T17:43:48.004Z,11.60
2017-10-28T17:47:59.923Z,11.60
2017-10-28T17:50:28.182Z,11.60
2017-10-28T17:52:55.683Z,11.60
2017-10-28T17:55:23.182Z,11.60
2017-10-28T17:57:50.664Z,11.60
2017-10-28T18:00:18.932Z,11.80
2017-10-28T18:02:46.412Z,11.80
2017-10-28T18:05:14.780Z,12.00
2017-10-28T18:07:43.030Z,12.00
2017-10-28T18:10:10.524Z,12.00
2017-10-28T18:12:38.783Z,11.90
2017-10-28T18:15:06.261Z,12.00
2017-10-28T18:17:34.512Z,11.90
2017-10-28T18:20:01.988Z,11.90
2017-10-28T18:22:29.516Z,11.90
2017-10-28T18:24:57.000Z,11.80
2017-10-28T18:27:24.475Z,11.80
2017-10-28T18:29:52.727Z,11.80
2017-10-28T18:32:20.204Z,11.80
2017-10-28T18:34:48.453Z,11.80
2017-10-28T18:37:15.927Z,11.80
2017-10-28T18:39:43.484Z,11.80
2017-10-28T18:42:11.736Z,11.80
2017-10-28T18:44:39.240Z,11.80
2017-10-28T18:47:07.507Z,11.80
2017-10-28T18:49:35.755Z,11.70
2017-10-28T18:52:03.289Z,11.70
2017-10-28T18:54:30.767Z,11.80
2017-10-28T18:56:58.372Z,11.80
2017-10-28T18:59:25.851Z,11.70
2017-10-28T19:01:53.328Z,11.80
2017-10-28T19:04:20.865Z,11.80
2017-10-28T19:06:48.348Z,11.90
2017-10-28T19:09:15.867Z,11.90
2017-10-28T19:11:43.348Z,11.90
2017-10-28T19:14:10.820Z,11.90
2017-10-28T19:16:38.339Z,11.90
2017-10-28T19:19:06.597Z,12.00
2017-10-28T19:21:34.876Z,12.10
2017-10-28T19:24:03.138Z,12.10
2017-10-28T19:26:30.621Z,12.10
2017-10-28T19:28:58.885Z,12.00
2017-10-28T19:31:27.136Z,12.10
2017-10-28T19:33:54.672Z,12.00
2017-10-28T19:36:22.148Z,12.10
2017-10-28T19:38:49.645Z,12.10
2017-10-28T19:41:17.908Z,12.10
2017-10-28T19:43:45.388Z,12.10
2017-10-28T19:46:12.911Z,12.10
2017-10-28T19:48:40.396Z,12.10
2017-10-28T19:51:08.640Z,12.10
2017-10-28T19:53:36.159Z,12.20
2017-10-28T19:56:03.665Z,12.20
2017-10-28T19:58:31.163Z,12.10
2017-10-28T20:00:58.644Z,12.20
2017-10-28T20:03:26.119Z,12.20
2017-10-28T20:05:53.613Z,12.20
2017-10-28T20:08:21.956Z,12.30
2017-10-28T20:10:49.467Z,12.30
2017-10-28T20:13:16.952Z,12.30
2017-10-28T20:15:44.432Z,12.30
2017-10-28T20:18:12.036Z,12.30
2017-10-28T20:20:40.301Z,12.40
2017-10-28T20:23:08.584Z,12.40
2017-10-28T20:25:36.879Z,12.40
2017-10-28T20:28:05.122Z,12.50
2017-10-28T20:30:32.626Z,12.50
2017-10-28T20:33:00.116Z,12.50
2017-10-28T20:35:27.616Z,12.50
2017-10-28T20:37:55.925Z,12.50
2017-10-28T20:40:23.444Z,12.50
2017-10-28T20:42:50.942Z,12.50
2017-10-28T20:45:18.428Z,12.50
2017-10-28T20:47:45.928Z,12.50
2017-10-28T20:50:14.172Z,12.50
2017-10-28T20:52:41.652Z,12.50
2017-10-28T20:55:09.140Z,12.60
2017-10-28T20:57:37.386Z,12.60
2017-10-28T21:00:05.662Z,12.60
2017-10-28T21:02:34.641Z,12.60
2017-10-28T21:05:02.134Z,12.60
2017-10-28T21:07:30.396Z,12.70
2017-10-28T21:09:58.668Z,12.70
2017-10-28T21:12:26.199Z,12.70
2017-10-28T21:14:53.732Z,12.80
2017-10-28T21:17:21.215Z,12.70
2017-10-28T21:19:48.721Z,12.70
2017-10-28T21:22:16.964Z,12.70
2017-10-28T21:24:44.479Z,12.70
2017-10-28T21:27:12.009Z,12.80
2017-10-28T21:29:40.253Z,12.80
2017-10-28T21:32:07.851Z,12.80
2017-10-28T21:34:36.110Z,12.90
2017-10-28T21:37:03.610Z,12.90
2017-10-28T21:39:31.123Z,12.90
2017-10-28T21:41:58.604Z,13.00
2017-10-28T21:44:26.865Z,13.00
2017-10-28T21:46:55.119Z,13.00
2017-10-28T21:49:22.629Z,13.00
2017-10-28T21:51:50.108Z,13.00
2017-10-28T21:54:17.588Z,13.00
2017-10-28T21:56:45.189Z,13.00
2017-10-28T21:59:13.444Z,13.00
2017-10-28T22:01:40.952Z,12.90
2017-10-28T22:04:08.437Z,12.90
2017-10-28T22:06:35.912Z,12.90
2017-10-28T22:09:03.408Z,12.90
2017-10-28T22:11:31.643Z,13.00
2017-10-28T22:13:59.143Z,13.00
2017-10-28T22:16:27.399Z,13.00
2017-10-28T22:18:55.683Z,13.00
2017-10-28T22:21:23.940Z,13.00
2017-10-28T22:23:51.420Z,13.00
2017-10-28T22:26:19.680Z,13.00
2017-10-28T22:28:47.174Z,13.00
2017-10-28T22:31:14.747Z,13.00
2017-10-28T22:33:42.247Z,13.00
2017-10-28T22:36:09.740Z,13.10
2017-10-28T22:38:38.020Z,13.20
2017-10-28T22:41:06.264Z,13.20
2017-10-28T22:43:33.760Z,13.20
2017-10-28T22:46:01.253Z,13.20
2017-10-28T22:48:28.732Z,13.30
2017-10-28T22:50:56.231Z,13.30
2017-10-28T22:53:23.793Z,13.30
2017-10-28T22:55:51.280Z,13.30
